sensor_id;sensor_type;location;lat;lon;timestamp;P1;durP1;ratioP1;P2;durP2;ratioP2
1414;SDS011;702;49.466;11.086;2023-01-06T00:01:11;15.43;;;6.20;;
1414;SDS011;702;49.466;11.086;2023-01-06T00:03:40;14.00;;;6.70;;
1414;SDS011;702;49.466;11.086;2023-01-06T00:06:08;16.77;;;6.33;;
1414;SDS011;702;49.466;11.086;2023-01-06T00:08:37;16.07;;;6.33;;
1414;SDS011;702;49.466;11.086;2023-01-06T00:11:05;14.60;;;6.10;;
1414;SDS011;702;49.466;11.086;2023-01-06T00:13:33;14.33;;;6.40;;
1414;SDS011;702;49.466;11.086;2023-01-06T00:16:04;21.83;;;6.50;;
1414;SDS011;702;49.466;11.086;2023-01-06T00:18:34;14.73;;;5.90;;
1414;SDS011;702;49.466;11.086;2023-01-06T00:21:01;15.77;;;6.33;;
1414;SDS011;702;49.466;11.086;2023-01-06T00:23:31;16.13;;;6.40;;
1414;SDS011;702;49.466;11.086;2023-01-06T00:25:59;17.37;;;7.00;;
1414;SDS011;702;49.466;11.086;2023-01-06T00:28:26;14.90;;;6.77;;
1414;SDS011;702;49.466;11.086;2023-01-06T00:30:55;15.80;;;6.80;;
1414;SDS011;702;49.466;11.086;2023-01-06T00:33:22;13.90;;;6.70;;
1414;SDS011;702;49.466;11.086;2023-01-06T00:35:51;11.33;;;5.90;;
1414;SDS011;702;49.466;11.086;2023-01-06T00:38:23;13.20;;;6.73;;
1414;SDS011;702;49.466;11.086;2023-01-06T00:40:51;13.40;;;7.17;;
1414;SDS011;702;49.466;11.086;2023-01-06T00:43:18;13.30;;;6.77;;
1414;SDS011;702;49.466;11.086;2023-01-06T00:45:45;14.90;;;6.60;;
1414;SDS011;702;49.466;11.086;2023-01-06T00:48:13;17.03;;;7.13;;
1414;SDS011;702;49.466;11.086;2023-01-06T00:50:40;11.80;;;6.90;;
1414;SDS011;702;49.466;11.086;2023-01-06T00:53:08;14.43;;;5.87;;
1414;SDS011;702;49.466;11.086;2023-01-06T00:55:36;17.70;;;6.80;;
1414;SDS011;702;49.466;11.086;2023-01-06T00:58:03;16.80;;;6.83;;
1414;SDS011;702;49.466;11.086;2023-01-06T01:00:30;9.63;;;5.97;;
1414;SDS011;702;49.466;11.086;2023-01-06T01:02:57;13.43;;;6.20;;
1414;SDS011;702;49.466;11.086;2023-01-06T01:05:25;16.73;;;6.87;;
1414;SDS011;702;49.466;11.086;2023-01-06T01:07:53;12.80;;;7.07;;
1414;SDS011;702;49.466;11.086;2023-01-06T01:10:22;14.17;;;6.80;;
1414;SDS011;702;49.466;11.086;2023-01-06T01:12:51;10.20;;;6.13;;
1414;SDS011;702;49.466;11.086;2023-01-06T01:15:19;9.00;;;6.13;;
1414;SDS011;702;49.466;11.086;2023-01-06T01:17:46;12.33;;;6.50;;
1414;SDS011;702;49.466;11.086;2023-01-06T01:20:13;14.67;;;7.43;;
1414;SDS011;702;49.466;11.086;2023-01-06T01:22:41;14.90;;;5.20;;
1414;SDS011;702;49.466;11.086;2023-01-06T01:25:08;22.50;;;8.10;;
1414;SDS011;702;49.466;11.086;2023-01-06T01:27:37;16.97;;;6.90;;
1414;SDS011;702;49.466;11.086;2023-01-06T01:30:04;10.60;;;7.00;;
1414;SDS011;702;49.466;11.086;2023-01-06T01:32:32;13.10;;;6.60;;
1414;SDS011;702;49.466;11.086;2023-01-06T01:35:00;14.37;;;6.07;;
1414;SDS011;702;49.466;11.086;2023-01-06T01:37:27;13.20;;;6.70;;
1414;SDS011;702;49.466;11.086;2023-01-06T01:39:55;15.10;;;6.40;;
1414;SDS011;702;49.466;11.086;2023-01-06T01:42:22;13.40;;;6.43;;
1414;SDS011;702;49.466;11.086;2023-01-06T01:44:55;12.70;;;6.43;;
1414;SDS011;702;49.466;11.086;2023-01-06T01:47:31;13.07;;;6.50;;
1414;SDS011;702;49.466;11.086;2023-01-06T01:50:14;9.67;;;6.30;;
1414;SDS011;702;49.466;11.086;2023-01-06T01:52:53;15.27;;;6.13;;
1414;SDS011;702;49.466;11.086;2023-01-06T01:55:24;10.70;;;6.00;;
1414;SDS011;702;49.466;11.086;2023-01-06T01:57:55;15.70;;;7.13;;
1414;SDS011;702;49.466;11.086;2023-01-06T02:00:31;13.33;;;6.50;;
1414;SDS011;702;49.466;11.086;2023-01-06T02:02:59;10.37;;;6.30;;
1414;SDS011;702;49.466;11.086;2023-01-06T02:05:27;11.83;;;6.33;;
1414;SDS011;702;49.466;11.086;2023-01-06T02:07:55;10.23;;;6.17;;
1414;SDS011;702;49.466;11.086;2023-01-06T02:10:26;10.77;;;5.93;;
1414;SDS011;702;49.466;11.086;2023-01-06T02:12:55;12.83;;;6.30;;
1414;SDS011;702;49.466;11.086;2023-01-06T02:15:24;10.53;;;6.23;;
1414;SDS011;702;49.466;11.086;2023-01-06T02:18:08;16.83;;;6.00;;
1414;SDS011;702;49.466;11.086;2023-01-06T02:21:15;14.93;;;6.60;;
1414;SDS011;702;49.466;11.086;2023-01-06T02:24:19;8.37;;;6.50;;
1414;SDS011;702;49.466;11.086;2023-01-06T02:27:30;13.53;;;7.13;;
1414;SDS011;702;49.466;11.086;2023-01-06T02:30:54;11.73;;;5.77;;
1414;SDS011;702;49.466;11.086;2023-01-06T02:33:58;9.13;;;6.00;;
1414;SDS011;702;49.466;11.086;2023-01-06T02:36:37;10.77;;;6.60;;
1414;SDS011;702;49.466;11.086;2023-01-06T02:39:16;15.40;;;6.57;;
1414;SDS011;702;49.466;11.086;2023-01-06T02:41:54;11.33;;;6.33;;
1414;SDS011;702;49.466;11.086;2023-01-06T02:44:34;15.73;;;6.43;;
1414;SDS011;702;49.466;11.086;2023-01-06T02:47:13;12.10;;;6.80;;
1414;SDS011;702;49.466;11.086;2023-01-06T02:49:46;11.93;;;6.70;;
1414;SDS011;702;49.466;11.086;2023-01-06T02:52:22;12.10;;;6.50;;
1414;SDS011;702;49.466;11.086;2023-01-06T02:54:58;10.17;;;6.30;;
1414;SDS011;702;49.466;11.086;2023-01-06T02:57:33;9.10;;;6.40;;
1414;SDS011;702;49.466;11.086;2023-01-06T03:00:05;14.20;;;5.90;;
1414;SDS011;702;49.466;11.086;2023-01-06T03:02:39;12.43;;;6.20;;
1414;SDS011;702;49.466;11.086;2023-01-06T03:05:13;10.70;;;6.97;;
1414;SDS011;702;49.466;11.086;2023-01-06T03:07:43;12.77;;;7.03;;
1414;SDS011;702;49.466;11.086;2023-01-06T03:10:13;12.50;;;6.77;;
1414;SDS011;702;49.466;11.086;2023-01-06T03:12:44;12.50;;;6.40;;
1414;SDS011;702;49.466;11.086;2023-01-06T03:15:18;10.40;;;6.40;;
1414;SDS011;702;49.466;11.086;2023-01-06T03:17:47;19.83;;;7.20;;
1414;SDS011;702;49.466;11.086;2023-01-06T03:20:15;8.00;;;6.33;;
1414;SDS011;702;49.466;11.086;2023-01-06T03:22:42;8.63;;;6.30;;
1414;SDS011;702;49.466;11.086;2023-01-06T03:25:10;14.00;;;6.87;;
1414;SDS011;702;49.466;11.086;2023-01-06T03:27:38;10.30;;;6.03;;
1414;SDS011;702;49.466;11.086;2023-01-06T03:30:06;13.33;;;6.80;;
1414;SDS011;702;49.466;11.086;2023-01-06T03:32:37;12.30;;;6.67;;
1414;SDS011;702;49.466;11.086;2023-01-06T03:35:19;8.60;;;6.37;;
1414;SDS011;702;49.466;11.086;2023-01-06T03:38:02;11.23;;;6.17;;
1414;SDS011;702;49.466;11.086;2023-01-06T03:40:42;8.27;;;6.33;;
1414;SDS011;702;49.466;11.086;2023-01-06T03:43:21;9.97;;;6.20;;
1414;SDS011;702;49.466;11.086;2023-01-06T03:45:54;8.30;;;6.40;;
1414;SDS011;702;49.466;11.086;2023-01-06T03:48:38;9.73;;;5.67;;
1414;SDS011;702;49.466;11.086;2023-01-06T03:51:20;8.93;;;6.83;;
1414;SDS011;702;49.466;11.086;2023-01-06T03:54:03;6.97;;;5.73;;
1414;SDS011;702;49.466;11.086;2023-01-06T03:56:35;11.00;;;6.40;;
1414;SDS011;702;49.466;11.086;2023-01-06T03:59:08;12.37;;;5.67;;
1414;SDS011;702;49.466;11.086;2023-01-06T04:01:40;8.40;;;5.73;;
1414;SDS011;702;49.466;11.086;2023-01-06T04:04:09;8.90;;;6.17;;
1414;SDS011;702;49.466;11.086;2023-01-06T04:06:37;6.00;;;5.40;;
1414;SDS011;702;49.466;11.086;2023-01-06T04:09:04;6.83;;;5.73;;
1414;SDS011;702;49.466;11.086;2023-01-06T04:11:31;7.57;;;5.73;;
1414;SDS011;702;49.466;11.086;2023-01-06T04:14:16;8.40;;;6.60;;
1414;SDS011;702;49.466;11.086;2023-01-06T04:16:43;6.30;;;5.70;;
1414;SDS011;702;49.466;11.086;2023-01-06T04:19:12;6.97;;;6.10;;
1414;SDS011;702;49.466;11.086;2023-01-06T04:21:39;8.67;;;6.50;;
1414;SDS011;702;49.466;11.086;2023-01-06T04:24:06;8.50;;;6.50;;
1414;SDS011;702;49.466;11.086;2023-01-06T04:26:34;10.47;;;7.27;;
1414;SDS011;702;49.466;11.086;2023-01-06T04:29:01;11.80;;;7.77;;
1414;SDS011;702;49.466;11.086;2023-01-06T04:31:28;9.23;;;7.67;;
1414;SDS011;702;49.466;11.086;2023-01-06T04:33:56;7.60;;;6.90;;
1414;SDS011;702;49.466;11.086;2023-01-06T04:36:24;8.30;;;6.73;;
1414;SDS011;702;49.466;11.086;2023-01-06T04:38:51;9.47;;;6.60;;
1414;SDS011;702;49.466;11.086;2023-01-06T04:41:19;7.83;;;6.50;;
1414;SDS011;702;49.466;11.086;2023-01-06T04:43:47;8.17;;;6.43;;
1414;SDS011;702;49.466;11.086;2023-01-06T04:46:14;8.67;;;6.30;;
1414;SDS011;702;49.466;11.086;2023-01-06T04:48:41;8.37;;;7.10;;
1414;SDS011;702;49.466;11.086;2023-01-06T04:51:09;7.67;;;6.87;;
1414;SDS011;702;49.466;11.086;2023-01-06T04:53:39;8.53;;;6.77;;
1414;SDS011;702;49.466;11.086;2023-01-06T04:56:08;8.50;;;6.80;;
1414;SDS011;702;49.466;11.086;2023-01-06T04:58:37;11.30;;;9.40;;
1414;SDS011;702;49.466;11.086;2023-01-06T05:01:04;9.07;;;8.10;;
1414;SDS011;702;49.466;11.086;2023-01-06T05:03:34;8.93;;;7.20;;
1414;SDS011;702;49.466;11.086;2023-01-06T05:06:02;9.00;;;7.37;;
1414;SDS011;702;49.466;11.086;2023-01-06T05:08:33;8.47;;;6.83;;
1414;SDS011;702;49.466;11.086;2023-01-06T05:11:04;7.97;;;6.40;;
1414;SDS011;702;49.466;11.086;2023-01-06T05:13:33;7.33;;;6.63;;
1414;SDS011;702;49.466;11.086;2023-01-06T05:16:04;7.20;;;6.50;;
1414;SDS011;702;49.466;11.086;2023-01-06T05:18:32;7.07;;;5.90;;
1414;SDS011;702;49.466;11.086;2023-01-06T05:21:00;9.53;;;5.80;;
1414;SDS011;702;49.466;11.086;2023-01-06T05:23:27;6.30;;;5.50;;
1414;SDS011;702;49.466;11.086;2023-01-06T05:25:54;6.53;;;5.67;;
1414;SDS011;702;49.466;11.086;2023-01-06T05:28:23;5.93;;;5.43;;
1414;SDS011;702;49.466;11.086;2023-01-06T05:30:50;6.90;;;6.07;;
1414;SDS011;702;49.466;11.086;2023-01-06T05:33:18;6.93;;;6.00;;
1414;SDS011;702;49.466;11.086;2023-01-06T05:35:45;6.63;;;5.13;;
1414;SDS011;702;49.466;11.086;2023-01-06T05:38:12;8.27;;;5.77;;
1414;SDS011;702;49.466;11.086;2023-01-06T05:40:39;5.40;;;4.90;;
1414;SDS011;702;49.466;11.086;2023-01-06T05:43:07;8.37;;;6.20;;
1414;SDS011;702;49.466;11.086;2023-01-06T05:45:36;7.83;;;6.00;;
1414;SDS011;702;49.466;11.086;2023-01-06T05:48:03;6.80;;;5.80;;
1414;SDS011;702;49.466;11.086;2023-01-06T05:50:31;5.37;;;4.97;;
1414;SDS011;702;49.466;11.086;2023-01-06T05:52:59;7.03;;;5.40;;
1414;SDS011;702;49.466;11.086;2023-01-06T05:55:26;5.53;;;5.00;;
1414;SDS011;702;49.466;11.086;2023-01-06T05:57:53;6.30;;;4.93;;
1414;SDS011;702;49.466;11.086;2023-01-06T06:00:20;6.10;;;5.57;;
1414;SDS011;702;49.466;11.086;2023-01-06T06:02:49;6.13;;;4.70;;
1414;SDS011;702;49.466;11.086;2023-01-06T06:05:16;5.23;;;4.47;;
1414;SDS011;702;49.466;11.086;2023-01-06T06:07:43;5.10;;;4.60;;
1414;SDS011;702;49.466;11.086;2023-01-06T06:10:13;4.50;;;4.10;;
1414;SDS011;702;49.466;11.086;2023-01-06T06:12:40;5.30;;;4.40;;
1414;SDS011;702;49.466;11.086;2023-01-06T06:15:07;4.67;;;4.00;;
1414;SDS011;702;49.466;11.086;2023-01-06T06:17:35;5.07;;;4.57;;
1414;SDS011;702;49.466;11.086;2023-01-06T06:20:04;4.60;;;3.93;;
1414;SDS011;702;49.466;11.086;2023-01-06T06:22:32;3.87;;;3.53;;
1414;SDS011;702;49.466;11.086;2023-01-06T06:25:00;3.93;;;3.30;;
1414;SDS011;702;49.466;11.086;2023-01-06T06:27:27;3.60;;;3.30;;
1414;SDS011;702;49.466;11.086;2023-01-06T06:29:54;5.03;;;3.80;;
1414;SDS011;702;49.466;11.086;2023-01-06T06:32:21;4.17;;;3.67;;
1414;SDS011;702;49.466;11.086;2023-01-06T06:34:48;3.57;;;3.27;;
1414;SDS011;702;49.466;11.086;2023-01-06T06:37:17;3.43;;;3.13;;
1414;SDS011;702;49.466;11.086;2023-01-06T06:39:44;2.90;;;2.70;;
1414;SDS011;702;49.466;11.086;2023-01-06T06:42:11;3.30;;;2.97;;
1414;SDS011;702;49.466;11.086;2023-01-06T06:44:38;3.27;;;2.97;;
1414;SDS011;702;49.466;11.086;2023-01-06T06:47:05;3.10;;;2.90;;
1414;SDS011;702;49.466;11.086;2023-01-06T06:49:33;3.00;;;2.70;;
1414;SDS011;702;49.466;11.086;2023-01-06T06:52:05;4.30;;;3.90;;
1414;SDS011;702;49.466;11.086;2023-01-06T06:54:34;5.20;;;3.97;;
1414;SDS011;702;49.466;11.086;2023-01-06T06:57:01;3.97;;;3.07;;
1414;SDS011;702;49.466;11.086;2023-01-06T06:59:28;5.00;;;4.10;;
1414;SDS011;702;49.466;11.086;2023-01-06T07:01:56;3.50;;;3.10;;
1414;SDS011;702;49.466;11.086;2023-01-06T07:04:23;3.80;;;2.80;;
1414;SDS011;702;49.466;11.086;2023-01-06T07:06:50;2.97;;;2.77;;
1414;SDS011;702;49.466;11.086;2023-01-06T07:09:17;3.77;;;2.80;;
1414;SDS011;702;49.466;11.086;2023-01-06T07:11:46;2.53;;;2.33;;
1414;SDS011;702;49.466;11.086;2023-01-06T07:14:13;2.57;;;2.37;;
1414;SDS011;702;49.466;11.086;2023-01-06T07:16:40;2.77;;;2.57;;
1414;SDS011;702;49.466;11.086;2023-01-06T07:19:08;2.80;;;2.60;;
1414;SDS011;702;49.466;11.086;2023-01-06T07:21:35;2.33;;;2.13;;
1414;SDS011;702;49.466;11.086;2023-01-06T07:24:02;2.77;;;2.57;;
1414;SDS011;702;49.466;11.086;2023-01-06T07:26:30;3.13;;;2.10;;
1414;SDS011;702;49.466;11.086;2023-01-06T07:28:59;3.10;;;2.90;;
1414;SDS011;702;49.466;11.086;2023-01-06T07:31:26;2.33;;;2.20;;
1414;SDS011;702;49.466;11.086;2023-01-06T07:33:53;2.50;;;2.30;;
1414;SDS011;702;49.466;11.086;2023-01-06T07:36:20;2.60;;;2.40;;
1414;SDS011;702;49.466;11.086;2023-01-06T07:38:47;3.00;;;2.80;;
1414;SDS011;702;49.466;11.086;2023-01-06T07:41:15;3.20;;;2.37;;
1414;SDS011;702;49.466;11.086;2023-01-06T07:43:42;5.23;;;2.73;;
1414;SDS011;702;49.466;11.086;2023-01-06T07:46:10;2.07;;;1.97;;
1414;SDS011;702;49.466;11.086;2023-01-06T07:48:37;2.60;;;2.40;;
1414;SDS011;702;49.466;11.086;2023-01-06T07:51:04;2.50;;;2.30;;
1414;SDS011;702;49.466;11.086;2023-01-06T07:53:32;2.50;;;2.30;;
1414;SDS011;702;49.466;11.086;2023-01-06T07:55:59;2.10;;;1.90;;
1414;SDS011;702;49.466;11.086;2023-01-06T07:58:26;2.83;;;2.50;;
1414;SDS011;702;49.466;11.086;2023-01-06T08:00:54;2.60;;;2.13;;
1414;SDS011;702;49.466;11.086;2023-01-06T08:03:22;2.80;;;2.40;;
1414;SDS011;702;49.466;11.086;2023-01-06T08:05:49;2.10;;;2.00;;
1414;SDS011;702;49.466;11.086;2023-01-06T08:08:16;2.77;;;2.40;;
1414;SDS011;702;49.466;11.086;2023-01-06T08:10:44;3.20;;;2.50;;
1414;SDS011;702;49.466;11.086;2023-01-06T08:13:11;2.60;;;2.40;;
1414;SDS011;702;49.466;11.086;2023-01-06T08:15:38;2.00;;;1.77;;
1414;SDS011;702;49.466;11.086;2023-01-06T08:18:05;3.00;;;2.50;;
1414;SDS011;702;49.466;11.086;2023-01-06T08:20:35;3.40;;;2.40;;
1414;SDS011;702;49.466;11.086;2023-01-06T08:23:02;3.80;;;2.50;;
1414;SDS011;702;49.466;11.086;2023-01-06T08:25:29;3.20;;;2.83;;
1414;SDS011;702;49.466;11.086;2023-01-06T08:27:57;3.20;;;2.90;;
1414;SDS011;702;49.466;11.086;2023-01-06T08:30:25;3.10;;;2.70;;
1414;SDS011;702;49.466;11.086;2023-01-06T08:32:54;3.00;;;2.80;;
1414;SDS011;702;49.466;11.086;2023-01-06T08:35:22;2.07;;;1.87;;
1414;SDS011;702;49.466;11.086;2023-01-06T08:37:51;8.17;;;2.80;;
1414;SDS011;702;49.466;11.086;2023-01-06T08:40:18;2.37;;;2.17;;
1414;SDS011;702;49.466;11.086;2023-01-06T08:42:46;2.50;;;2.30;;
1414;SDS011;702;49.466;11.086;2023-01-06T08:45:13;2.50;;;2.30;;
1414;SDS011;702;49.466;11.086;2023-01-06T08:47:40;2.00;;;1.87;;
1414;SDS011;702;49.466;11.086;2023-01-06T08:50:08;2.50;;;2.27;;
1414;SDS011;702;49.466;11.086;2023-01-06T08:52:35;2.53;;;2.17;;
1414;SDS011;702;49.466;11.086;2023-01-06T08:55:03;2.60;;;2.40;;
1414;SDS011;702;49.466;11.086;2023-01-06T08:57:32;4.00;;;2.83;;
1414;SDS011;702;49.466;11.086;2023-01-06T08:59:59;2.63;;;2.43;;
1414;SDS011;702;49.466;11.086;2023-01-06T09:02:27;4.63;;;2.60;;
1414;SDS011;702;49.466;11.086;2023-01-06T09:04:55;2.50;;;2.30;;
1414;SDS011;702;49.466;11.086;2023-01-06T09:07:22;2.67;;;2.30;;
1414;SDS011;702;49.466;11.086;2023-01-06T09:09:52;2.30;;;1.93;;
1414;SDS011;702;49.466;11.086;2023-01-06T09:12:20;2.40;;;2.20;;
1414;SDS011;702;49.466;11.086;2023-01-06T09:14:48;3.53;;;2.73;;
1414;SDS011;702;49.466;11.086;2023-01-06T09:17:15;2.60;;;2.40;;
1414;SDS011;702;49.466;11.086;2023-01-06T09:19:42;3.33;;;3.03;;
1414;SDS011;702;49.466;11.086;2023-01-06T09:22:09;2.60;;;2.40;;
1414;SDS011;702;49.466;11.086;2023-01-06T09:24:36;3.60;;;2.40;;
1414;SDS011;702;49.466;11.086;2023-01-06T09:27:03;2.90;;;2.70;;
1414;SDS011;702;49.466;11.086;2023-01-06T09:29:32;2.73;;;2.53;;
1414;SDS011;702;49.466;11.086;2023-01-06T09:31:59;2.40;;;2.10;;
1414;SDS011;702;49.466;11.086;2023-01-06T09:34:27;2.43;;;2.23;;
1414;SDS011;702;49.466;11.086;2023-01-06T09:36:54;2.20;;;2.00;;
1414;SDS011;702;49.466;11.086;2023-01-06T09:39:22;3.03;;;2.00;;
1414;SDS011;702;49.466;11.086;2023-01-06T09:42:02;2.40;;;2.20;;
1414;SDS011;702;49.466;11.086;2023-01-06T09:44:51;1.87;;;1.70;;
1414;SDS011;702;49.466;11.086;2023-01-06T09:47:23;1.60;;;1.50;;
1414;SDS011;702;49.466;11.086;2023-01-06T09:49:56;1.90;;;1.70;;
1414;SDS011;702;49.466;11.086;2023-01-06T09:52:30;5.63;;;2.20;;
1414;SDS011;702;49.466;11.086;2023-01-06T09:55:04;1.60;;;1.50;;
1414;SDS011;702;49.466;11.086;2023-01-06T09:57:40;5.57;;;3.73;;
1414;SDS011;702;49.466;11.086;2023-01-06T10:00:18;2.70;;;1.80;;
1414;SDS011;702;49.466;11.086;2023-01-06T10:03:02;1.93;;;1.57;;
1414;SDS011;702;49.466;11.086;2023-01-06T10:05:31;2.50;;;1.40;;
1414;SDS011;702;49.466;11.086;2023-01-06T10:08:10;2.30;;;1.50;;
1414;SDS011;702;49.466;11.086;2023-01-06T10:10:48;1.63;;;1.53;;
1414;SDS011;702;49.466;11.086;2023-01-06T10:13:33;1.93;;;1.57;;
1414;SDS011;702;49.466;11.086;2023-01-06T10:16:18;2.40;;;1.37;;
1414;SDS011;702;49.466;11.086;2023-01-06T10:18:57;1.90;;;1.47;;
1414;SDS011;702;49.466;11.086;2023-01-06T10:21:38;1.90;;;1.70;;
1414;SDS011;702;49.466;11.086;2023-01-06T10:24:24;1.70;;;1.60;;
1414;SDS011;702;49.466;11.086;2023-01-06T10:27:01;3.00;;;1.60;;
1414;SDS011;702;49.466;11.086;2023-01-06T10:29:42;1.47;;;1.27;;
1414;SDS011;702;49.466;11.086;2023-01-06T10:32:13;1.70;;;1.43;;
1414;SDS011;702;49.466;11.086;2023-01-06T10:34:43;1.67;;;1.50;;
1414;SDS011;702;49.466;11.086;2023-01-06T10:37:13;1.37;;;1.27;;
1414;SDS011;702;49.466;11.086;2023-01-06T10:39:47;1.60;;;1.50;;
1414;SDS011;702;49.466;11.086;2023-01-06T10:42:21;1.30;;;1.30;;
1414;SDS011;702;49.466;11.086;2023-01-06T10:45:14;1.17;;;1.07;;
1414;SDS011;702;49.466;11.086;2023-01-06T10:47:43;2.30;;;1.90;;
1414;SDS011;702;49.466;11.086;2023-01-06T10:50:12;1.60;;;1.50;;
1414;SDS011;702;49.466;11.086;2023-01-06T10:52:40;2.00;;;1.57;;
1414;SDS011;702;49.466;11.086;2023-01-06T10:55:09;1.73;;;1.63;;
1414;SDS011;702;49.466;11.086;2023-01-06T10:57:56;1.77;;;1.67;;
1414;SDS011;702;49.466;11.086;2023-01-06T11:00:26;3.03;;;1.67;;
1414;SDS011;702;49.466;11.086;2023-01-06T11:03:02;2.00;;;1.80;;
1414;SDS011;702;49.466;11.086;2023-01-06T11:05:31;1.87;;;1.70;;
1414;SDS011;702;49.466;11.086;2023-01-06T11:08:04;1.37;;;1.27;;
1414;SDS011;702;49.466;11.086;2023-01-06T11:10:36;1.67;;;1.57;;
1414;SDS011;702;49.466;11.086;2023-01-06T11:13:14;2.23;;;1.43;;
1414;SDS011;702;49.466;11.086;2023-01-06T11:15:50;1.83;;;1.33;;
1414;SDS011;702;49.466;11.086;2023-01-06T11:18:20;1.63;;;1.53;;
1414;SDS011;702;49.466;11.086;2023-01-06T11:21:01;1.80;;;1.37;;
1414;SDS011;702;49.466;11.086;2023-01-06T11:23:32;1.57;;;1.47;;
1414;SDS011;702;49.466;11.086;2023-01-06T11:26:01;2.40;;;1.17;;
1414;SDS011;702;49.466;11.086;2023-01-06T11:28:40;1.90;;;1.03;;
1414;SDS011;702;49.466;11.086;2023-01-06T11:31:09;1.73;;;0.87;;
1414;SDS011;702;49.466;11.086;2023-01-06T11:33:47;0.60;;;0.60;;
1414;SDS011;702;49.466;11.086;2023-01-06T11:36:19;1.20;;;1.00;;
1414;SDS011;702;49.466;11.086;2023-01-06T11:38:49;0.70;;;0.70;;
1414;SDS011;702;49.466;11.086;2023-01-06T11:41:23;0.70;;;0.70;;
1414;SDS011;702;49.466;11.086;2023-01-06T11:43:54;1.97;;;0.67;;
1414;SDS011;702;49.466;11.086;2023-01-06T11:46:31;1.17;;;0.60;;
1414;SDS011;702;49.466;11.086;2023-01-06T11:49:02;0.73;;;0.53;;
1414;SDS011;702;49.466;11.086;2023-01-06T11:51:46;0.87;;;0.67;;
1414;SDS011;702;49.466;11.086;2023-01-06T11:54:22;2.20;;;0.77;;
1414;SDS011;702;49.466;11.086;2023-01-06T11:56:57;0.80;;;0.50;;
1414;SDS011;702;49.466;11.086;2023-01-06T11:59:30;1.43;;;0.83;;
1414;SDS011;702;49.466;11.086;2023-01-06T12:02:12;1.20;;;1.10;;
1414;SDS011;702;49.466;11.086;2023-01-06T12:04:50;1.33;;;0.70;;
1414;SDS011;702;49.466;11.086;2023-01-06T12:07:22;1.13;;;1.00;;
1414;SDS011;702;49.466;11.086;2023-01-06T12:09:57;1.43;;;0.60;;
1414;SDS011;702;49.466;11.086;2023-01-06T12:12:30;0.93;;;0.93;;
1414;SDS011;702;49.466;11.086;2023-01-06T12:14:57;1.10;;;0.90;;
1414;SDS011;702;49.466;11.086;2023-01-06T12:17:31;1.50;;;1.07;;
1414;SDS011;702;49.466;11.086;2023-01-06T12:20:06;1.17;;;1.00;;
1414;SDS011;702;49.466;11.086;2023-01-06T12:22:42;0.57;;;0.57;;
1414;SDS011;702;49.466;11.086;2023-01-06T12:25:14;1.13;;;1.03;;
1414;SDS011;702;49.466;11.086;2023-01-06T12:27:47;1.70;;;1.20;;
1414;SDS011;702;49.466;11.086;2023-01-06T12:30:19;1.47;;;0.83;;
1414;SDS011;702;49.466;11.086;2023-01-06T12:32:53;1.50;;;1.00;;
1414;SDS011;702;49.466;11.086;2023-01-06T12:35:27;1.20;;;0.83;;
1414;SDS011;702;49.466;11.086;2023-01-06T12:37:59;1.67;;;1.27;;
1414;SDS011;702;49.466;11.086;2023-01-06T12:40:34;1.50;;;0.87;;
1414;SDS011;702;49.466;11.086;2023-01-06T12:43:10;1.10;;;0.87;;
1414;SDS011;702;49.466;11.086;2023-01-06T12:45:45;0.87;;;0.83;;
1414;SDS011;702;49.466;11.086;2023-01-06T12:48:22;1.53;;;1.30;;
1414;SDS011;702;49.466;11.086;2023-01-06T12:51:00;1.87;;;1.67;;
1414;SDS011;702;49.466;11.086;2023-01-06T12:53:36;1.10;;;1.00;;
1414;SDS011;702;49.466;11.086;2023-01-06T12:56:17;1.00;;;0.73;;
1414;SDS011;702;49.466;11.086;2023-01-06T12:59:11;3.90;;;1.63;;
1414;SDS011;702;49.466;11.086;2023-01-06T13:01:50;2.10;;;1.10;;
1414;SDS011;702;49.466;11.086;2023-01-06T13:04:32;1.27;;;0.87;;
1414;SDS011;702;49.466;11.086;2023-01-06T13:07:33;1.30;;;1.10;;
1414;SDS011;702;49.466;11.086;2023-01-06T13:10:12;1.63;;;1.03;;
1414;SDS011;702;49.466;11.086;2023-01-06T13:12:52;1.37;;;1.20;;
1414;SDS011;702;49.466;11.086;2023-01-06T13:15:39;1.03;;;0.90;;
1414;SDS011;702;49.466;11.086;2023-01-06T13:18:10;1.50;;;1.03;;
1414;SDS011;702;49.466;11.086;2023-01-06T13:20:44;1.93;;;1.40;;
1414;SDS011;702;49.466;11.086;2023-01-06T13:23:27;1.57;;;1.30;;
1414;SDS011;702;49.466;11.086;2023-01-06T13:26:12;1.40;;;1.30;;
1414;SDS011;702;49.466;11.086;2023-01-06T13:28:59;1.73;;;0.90;;
1414;SDS011;702;49.466;11.086;2023-01-06T13:31:59;0.87;;;0.87;;
1414;SDS011;702;49.466;11.086;2023-01-06T13:34:41;0.83;;;0.83;;
1414;SDS011;702;49.466;11.086;2023-01-06T13:37:50;0.77;;;0.70;;
1414;SDS011;702;49.466;11.086;2023-01-06T13:40:34;4.40;;;1.00;;
1414;SDS011;702;49.466;11.086;2023-01-06T13:43:05;1.67;;;1.17;;
1414;SDS011;702;49.466;11.086;2023-01-06T13:45:39;0.90;;;0.90;;
1414;SDS011;702;49.466;11.086;2023-01-06T13:48:13;0.97;;;0.90;;
1414;SDS011;702;49.466;11.086;2023-01-06T13:50:44;1.10;;;1.10;;
1414;SDS011;702;49.466;11.086;2023-01-06T13:53:14;1.07;;;0.97;;
1414;SDS011;702;49.466;11.086;2023-01-06T13:55:47;1.37;;;1.27;;
1414;SDS011;702;49.466;11.086;2023-01-06T13:58:33;4.30;;;1.30;;
1414;SDS011;702;49.466;11.086;2023-01-06T14:01:06;1.47;;;1.10;;
1414;SDS011;702;49.466;11.086;2023-01-06T14:03:35;2.00;;;0.90;;
1414;SDS011;702;49.466;11.086;2023-01-06T14:06:03;1.57;;;1.17;;
1414;SDS011;702;49.466;11.086;2023-01-06T14:08:35;3.23;;;1.20;;
1414;SDS011;702;49.466;11.086;2023-01-06T14:11:18;1.43;;;1.33;;
1414;SDS011;702;49.466;11.086;2023-01-06T14:13:51;1.40;;;1.20;;
1414;SDS011;702;49.466;11.086;2023-01-06T14:16:20;2.70;;;1.07;;
1414;SDS011;702;49.466;11.086;2023-01-06T14:19:06;1.40;;;1.30;;
1414;SDS011;702;49.466;11.086;2023-01-06T14:21:41;1.43;;;1.17;;
1414;SDS011;702;49.466;11.086;2023-01-06T14:24:17;1.50;;;1.20;;
1414;SDS011;702;49.466;11.086;2023-01-06T14:26:53;0.90;;;0.80;;
1414;SDS011;702;49.466;11.086;2023-01-06T14:29:44;1.80;;;0.90;;
1414;SDS011;702;49.466;11.086;2023-01-06T14:35:31;1.10;;;1.00;;
1414;SDS011;702;49.466;11.086;2023-01-06T14:38:11;1.33;;;1.03;;
1414;SDS011;702;49.466;11.086;2023-01-06T14:40:48;2.17;;;1.03;;
1414;SDS011;702;49.466;11.086;2023-01-06T14:43:30;1.03;;;0.93;;
1414;SDS011;702;49.466;11.086;2023-01-06T14:46:07;1.30;;;1.20;;
1414;SDS011;702;49.466;11.086;2023-01-06T14:48:44;1.33;;;0.90;;
1414;SDS011;702;49.466;11.086;2023-01-06T14:51:18;1.27;;;1.07;;
1414;SDS011;702;49.466;11.086;2023-01-06T14:53:48;2.40;;;1.63;;
1414;SDS011;702;49.466;11.086;2023-01-06T14:56:24;1.60;;;1.27;;
1414;SDS011;702;49.466;11.086;2023-01-06T14:59:08;2.57;;;0.80;;
1414;SDS011;702;49.466;11.086;2023-01-06T15:01:37;1.03;;;1.03;;
1414;SDS011;702;49.466;11.086;2023-01-06T15:04:18;2.13;;;1.20;;
1414;SDS011;702;49.466;11.086;2023-01-06T15:06:56;2.47;;;1.27;;
1414;SDS011;702;49.466;11.086;2023-01-06T15:09:30;1.13;;;1.03;;
1414;SDS011;702;49.466;11.086;2023-01-06T15:11:58;2.87;;;1.50;;
1414;SDS011;702;49.466;11.086;2023-01-06T15:14:27;2.77;;;2.30;;
1414;SDS011;702;49.466;11.086;2023-01-06T15:16:58;1.57;;;1.40;;
1414;SDS011;702;49.466;11.086;2023-01-06T15:19:28;1.73;;;1.30;;
1414;SDS011;702;49.466;11.086;2023-01-06T15:21:56;2.70;;;1.93;;
1414;SDS011;702;49.466;11.086;2023-01-06T15:24:29;1.77;;;1.67;;
1414;SDS011;702;49.466;11.086;2023-01-06T15:27:02;2.70;;;1.80;;
1414;SDS011;702;49.466;11.086;2023-01-06T15:29:33;2.00;;;1.80;;
1414;SDS011;702;49.466;11.086;2023-01-06T15:32:00;1.93;;;1.83;;
1414;SDS011;702;49.466;11.086;2023-01-06T15:34:31;1.90;;;1.70;;
1414;SDS011;702;49.466;11.086;2023-01-06T15:37:01;4.97;;;1.70;;
1414;SDS011;702;49.466;11.086;2023-01-06T15:39:33;3.80;;;1.43;;
1414;SDS011;702;49.466;11.086;2023-01-06T15:42:03;2.10;;;1.90;;
1414;SDS011;702;49.466;11.086;2023-01-06T15:44:33;2.20;;;2.00;;
1414;SDS011;702;49.466;11.086;2023-01-06T15:47:05;2.27;;;1.70;;